TAP1337 EGKK-LPPT
Flight info
| Callsign | TAP1337 |
|---|---|
| Flight time | 2h 16m |
| Altitude | 35000 |
| Route | NOVMA L620 SAM M195 LORKU DCT POZOF DCT BALDA DCT ABUPI DCT XAMAX |
| Aircraft | A320/M-SDE3FGHIRWY/LB1 |
Departure
| Time | 2026-04-15 14:41 |
|---|---|
| Airport | London Gatwick Airport (EGKK) |
Arrival
| Time | 2026-04-15 16:58 |
|---|---|
| Airport | Lisbon Humberto Delgado Airport (LPPT) |
| Time | Latitude | Longitude | Altitude | Speed | Heading |
|---|---|---|---|---|---|
| 2026-04-15 14:04 | 51.15352 | -0.17695 | 204 ft | 0 kts | 347° |
| 2026-04-15 14:32 | 51.15336 | -0.17691 | 212 ft | 2 kts | 1° |
| 2026-04-15 14:32 | 51.15320 | -0.17697 | 204 ft | 2 kts | 47° |
| 2026-04-15 14:33 | 51.15311 | -0.17719 | 212 ft | 2 kts | 73° |
| 2026-04-15 14:33 | 51.15310 | -0.17720 | 212 ft | 0 kts | 75° |
| 2026-04-15 14:36 | 51.15313 | -0.17704 | 214 ft | 3 kts | 75° |
| 2026-04-15 14:36 | 51.15306 | -0.17682 | 215 ft | 4 kts | 121° |
| 2026-04-15 14:36 | 51.15286 | -0.17636 | 212 ft | 4 kts | 124° |
| 2026-04-15 14:36 | 51.15280 | -0.17596 | 206 ft | 3 kts | 94° |
| 2026-04-15 14:37 | 51.15285 | -0.17556 | 203 ft | 4 kts | 76° |
| 2026-04-15 14:37 | 51.15293 | -0.17507 | 210 ft | 7 kts | 76° |
| 2026-04-15 14:37 | 51.15299 | -0.17440 | 207 ft | 5 kts | 79° |
| 2026-04-15 14:37 | 51.15300 | -0.17388 | 212 ft | 4 kts | 102° |
| 2026-04-15 14:38 | 51.15286 | -0.17357 | 215 ft | 3 kts | 136° |
| 2026-04-15 14:38 | 51.15268 | -0.17338 | 214 ft | 3 kts | 147° |
| 2026-04-15 14:38 | 51.15246 | -0.17315 | 206 ft | 4 kts | 147° |
| 2026-04-15 14:38 | 51.15221 | -0.17288 | 211 ft | 6 kts | 145° |
| 2026-04-15 14:39 | 51.15184 | -0.17228 | 210 ft | 9 kts | 111° |
| 2026-04-15 14:39 | 51.15182 | -0.17134 | 204 ft | 8 kts | 77° |
| 2026-04-15 14:39 | 51.15196 | -0.17058 | 209 ft | 7 kts | 73° |
| 2026-04-15 14:39 | 51.15208 | -0.16996 | 208 ft | 5 kts | 73° |
| 2026-04-15 14:40 | 51.15215 | -0.16948 | 204 ft | 4 kts | 77° |
| 2026-04-15 14:40 | 51.15222 | -0.16890 | 208 ft | 11 kts | 85° |
| 2026-04-15 14:40 | 51.15169 | -0.16783 | 214 ft | 15 kts | 172° |
| 2026-04-15 14:40 | 51.15110 | -0.16882 | 207 ft | 13 kts | 259° |
| 2026-04-15 14:41 | 51.15086 | -0.17069 | 210 ft | 29 kts | 257° |
| 2026-04-15 14:41 | 51.14992 | -0.17755 | 208 ft | 95 kts | 258° |
| 2026-04-15 14:41 | 51.14807 | -0.19077 | 211 ft | 146 kts | 255° |
| 2026-04-15 14:41 | 51.14603 | -0.20662 | 825 ft | 145 kts | 253° |
| 2026-04-15 14:42 | 51.14391 | -0.22220 | 1483 ft | 150 kts | 251° |
| 2026-04-15 14:42 | 51.14143 | -0.23953 | 1839 ft | 171 kts | 251° |
| 2026-04-15 14:42 | 51.13859 | -0.25922 | 2145 ft | 193 kts | 252° |
| 2026-04-15 14:42 | 51.13558 | -0.28036 | 2906 ft | 196 kts | 252° |
| 2026-04-15 14:43 | 51.13261 | -0.30171 | 3796 ft | 198 kts | 252° |
| 2026-04-15 14:43 | 51.12963 | -0.32325 | 4681 ft | 200 kts | 252° |
| 2026-04-15 14:43 | 51.12662 | -0.34514 | 5504 ft | 203 kts | 252° |
| 2026-04-15 14:43 | 51.12359 | -0.36724 | 6338 ft | 206 kts | 252° |
| 2026-04-15 14:44 | 51.12047 | -0.38987 | 6958 ft | 218 kts | 253° |
| 2026-04-15 14:44 | 51.11697 | -0.41468 | 7371 ft | 239 kts | 253° |
| 2026-04-15 14:44 | 51.11172 | -0.43958 | 8102 ft | 242 kts | 241° |
| 2026-04-15 14:44 | 51.10421 | -0.46369 | 8949 ft | 244 kts | 241° |
| 2026-04-15 14:45 | 51.09663 | -0.48802 | 9805 ft | 247 kts | 240° |
| 2026-04-15 14:45 | 51.08896 | -0.51258 | 10592 ft | 249 kts | 240° |
| 2026-04-15 14:45 | 51.08120 | -0.53741 | 11378 ft | 251 kts | 240° |
| 2026-04-15 14:45 | 51.07338 | -0.56244 | 12154 ft | 253 kts | 240° |
| 2026-04-15 14:46 | 51.06550 | -0.58768 | 12934 ft | 256 kts | 240° |
| 2026-04-15 14:46 | 51.06027 | -0.60446 | 13455 ft | 257 kts | 240° |
| 2026-04-15 14:46 | 51.05320 | -0.63089 | 14183 ft | 263 kts | 249° |
| 2026-04-15 14:46 | 51.04921 | -0.65960 | 14880 ft | 268 kts | 252° |
| 2026-04-15 14:47 | 51.04532 | -0.68887 | 15512 ft | 272 kts | 252° |
| 2026-04-15 14:47 | 51.04133 | -0.71858 | 16135 ft | 276 kts | 251° |
| 2026-04-15 14:47 | 51.03728 | -0.74866 | 16755 ft | 280 kts | 251° |
| 2026-04-15 14:47 | 51.03307 | -0.77957 | 17059 ft | 295 kts | 251° |
| 2026-04-15 14:48 | 51.02856 | -0.81242 | 17201 ft | 314 kts | 251° |
| 2026-04-15 14:48 | 51.02374 | -0.84735 | 17338 ft | 333 kts | 252° |
| 2026-04-15 14:48 | 51.01864 | -0.88439 | 17475 ft | 352 kts | 252° |
| 2026-04-15 14:48 | 51.01335 | -0.92299 | 17775 ft | 362 kts | 252° |
| 2026-04-15 14:49 | 51.00801 | -0.96231 | 18299 ft | 366 kts | 252° |
| 2026-04-15 14:49 | 51.00268 | -1.00179 | 18842 ft | 367 kts | 252° |
| 2026-04-15 14:49 | 50.99729 | -1.04149 | 19321 ft | 369 kts | 252° |
| 2026-04-15 14:49 | 50.99186 | -1.08146 | 19812 ft | 372 kts | 251° |
| 2026-04-15 14:50 | 50.98636 | -1.12166 | 20315 ft | 374 kts | 251° |
| 2026-04-15 14:50 | 50.98076 | -1.16215 | 20825 ft | 377 kts | 250° |
| 2026-04-15 14:50 | 50.97512 | -1.20235 | 21330 ft | 379 kts | 250° |
| 2026-04-15 14:50 | 50.96937 | -1.24330 | 21813 ft | 382 kts | 250° |
| 2026-04-15 14:51 | 50.96281 | -1.28413 | 22285 ft | 379 kts | 244° |
| 2026-04-15 14:51 | 50.95206 | -1.32182 | 22737 ft | 373 kts | 233° |
| 2026-04-15 14:51 | 50.93705 | -1.35505 | 23152 ft | 367 kts | 223° |
| 2026-04-15 14:51 | 50.91854 | -1.38261 | 23572 ft | 364 kts | 214° |
| 2026-04-15 14:52 | 50.89760 | -1.40512 | 23929 ft | 364 kts | 210° |
| 2026-04-15 14:52 | 50.87638 | -1.42714 | 24355 ft | 365 kts | 211° |
| 2026-04-15 14:52 | 50.85507 | -1.44929 | 24702 ft | 367 kts | 211° |
| 2026-04-15 14:52 | 50.83364 | -1.47158 | 25042 ft | 369 kts | 211° |
| 2026-04-15 14:53 | 50.81208 | -1.49399 | 25373 ft | 372 kts | 211° |
| 2026-04-15 14:53 | 50.79065 | -1.51622 | 25688 ft | 374 kts | 211° |
| 2026-04-15 14:53 | 50.76882 | -1.53885 | 26009 ft | 375 kts | 211° |
| 2026-04-15 14:53 | 50.74690 | -1.56156 | 26313 ft | 377 kts | 211° |
| 2026-04-15 14:54 | 50.72488 | -1.58438 | 26598 ft | 379 kts | 211° |
| 2026-04-15 14:54 | 50.70272 | -1.60729 | 26892 ft | 381 kts | 211° |
| 2026-04-15 14:54 | 50.68040 | -1.63025 | 27193 ft | 383 kts | 211° |
| 2026-04-15 14:54 | 50.65795 | -1.65326 | 27493 ft | 385 kts | 211° |
| 2026-04-15 14:55 | 50.63543 | -1.67635 | 27748 ft | 387 kts | 211° |
| 2026-04-15 14:55 | 50.61283 | -1.69951 | 28077 ft | 388 kts | 212° |
| 2026-04-15 14:55 | 50.59026 | -1.72266 | 28470 ft | 387 kts | 212° |
| 2026-04-15 14:55 | 50.56774 | -1.74573 | 28871 ft | 386 kts | 212° |
| 2026-04-15 14:56 | 50.54524 | -1.76874 | 29270 ft | 385 kts | 212° |
| 2026-04-15 14:56 | 50.52278 | -1.79169 | 29680 ft | 384 kts | 212° |
| 2026-04-15 14:56 | 50.50066 | -1.81431 | 30074 ft | 384 kts | 212° |
| 2026-04-15 14:56 | 50.47829 | -1.83722 | 30421 ft | 383 kts | 212° |
| 2026-04-15 14:57 | 50.45594 | -1.86006 | 30815 ft | 382 kts | 212° |
| 2026-04-15 14:57 | 50.43356 | -1.88284 | 31050 ft | 384 kts | 212° |
| 2026-04-15 14:57 | 50.41112 | -1.90559 | 31339 ft | 384 kts | 212° |
| 2026-04-15 14:57 | 50.38866 | -1.92832 | 31617 ft | 384 kts | 213° |
| 2026-04-15 14:58 | 50.36625 | -1.95100 | 31949 ft | 383 kts | 213° |
| 2026-04-15 14:58 | 50.34384 | -1.97367 | 32272 ft | 382 kts | 213° |
| 2026-04-15 14:58 | 50.32180 | -1.99598 | 32597 ft | 382 kts | 213° |
| 2026-04-15 14:58 | 50.29946 | -2.01855 | 32852 ft | 383 kts | 213° |
| 2026-04-15 14:59 | 50.27694 | -2.04126 | 33009 ft | 386 kts | 213° |
| 2026-04-15 14:59 | 50.23111 | -2.08737 | 33049 ft | 396 kts | 213° |
| 2026-04-15 15:00 | 50.18433 | -2.13329 | 33055 ft | 397 kts | 212° |
| 2026-04-15 15:00 | 50.13755 | -2.17847 | 33057 ft | 398 kts | 213° |
| 2026-04-15 15:01 | 50.09050 | -2.22389 | 33060 ft | 397 kts | 213° |
| 2026-04-15 15:01 | 50.04353 | -2.26947 | 33057 ft | 398 kts | 213° |
| 2026-04-15 15:02 | 49.99634 | -2.31512 | 33062 ft | 401 kts | 213° |
| 2026-04-15 15:02 | 49.94878 | -2.36096 | 33065 ft | 403 kts | 213° |
| 2026-04-15 15:03 | 49.89811 | -2.39920 | 33076 ft | 405 kts | 207° |
| 2026-04-15 15:03 | 49.84660 | -2.43509 | 33082 ft | 405 kts | 207° |
| 2026-04-15 15:04 | 49.79516 | -2.47100 | 33082 ft | 405 kts | 207° |
| 2026-04-15 15:04 | 49.74402 | -2.50660 | 33084 ft | 405 kts | 207° |
| 2026-04-15 15:05 | 49.69254 | -2.54235 | 33077 ft | 406 kts | 207° |
| 2026-04-15 15:05 | 49.64100 | -2.57806 | 33100 ft | 406 kts | 207° |
| 2026-04-15 15:06 | 49.56364 | -2.63155 | 33109 ft | 406 kts | 207° |
| 2026-04-15 15:06 | 49.51205 | -2.66722 | 33112 ft | 406 kts | 207° |
| 2026-04-15 15:07 | 49.46039 | -2.70274 | 33113 ft | 409 kts | 208° |
| 2026-04-15 15:07 | 49.40850 | -2.73823 | 33110 ft | 411 kts | 208° |
| 2026-04-15 15:08 | 49.35612 | -2.77392 | 33107 ft | 411 kts | 208° |
| 2026-04-15 15:08 | 49.30382 | -2.80961 | 33105 ft | 411 kts | 208° |
| 2026-04-15 15:09 | 49.25149 | -2.84527 | 33071 ft | 411 kts | 209° |
| 2026-04-15 15:09 | 49.19913 | -2.88087 | 33096 ft | 411 kts | 209° |
| 2026-04-15 15:10 | 49.14713 | -2.91612 | 33099 ft | 411 kts | 208° |
| 2026-04-15 15:10 | 49.09472 | -2.95152 | 33085 ft | 411 kts | 209° |
| 2026-04-15 15:11 | 49.04230 | -2.98683 | 33066 ft | 411 kts | 209° |
| 2026-04-15 15:11 | 48.98995 | -3.02196 | 33096 ft | 411 kts | 209° |
| 2026-04-15 15:12 | 48.93761 | -3.05718 | 33096 ft | 411 kts | 209° |
| 2026-04-15 15:12 | 48.88509 | -3.09236 | 33096 ft | 414 kts | 210° |
| 2026-04-15 15:13 | 48.83253 | -3.12752 | 33104 ft | 416 kts | 210° |
| 2026-04-15 15:13 | 48.77947 | -3.16295 | 33105 ft | 416 kts | 209° |
| 2026-04-15 15:14 | 48.72645 | -3.19816 | 33107 ft | 416 kts | 209° |
| 2026-04-15 15:14 | 48.67338 | -3.23330 | 33109 ft | 416 kts | 209° |
| 2026-04-15 15:15 | 48.62030 | -3.26847 | 33111 ft | 416 kts | 210° |
| 2026-04-15 15:15 | 48.56729 | -3.30367 | 33113 ft | 416 kts | 210° |
| 2026-04-15 15:16 | 48.51426 | -3.33860 | 33117 ft | 416 kts | 210° |
| 2026-04-15 15:16 | 48.46121 | -3.37346 | 33117 ft | 416 kts | 210° |
| 2026-04-15 15:17 | 48.40818 | -3.40824 | 33123 ft | 416 kts | 210° |
| 2026-04-15 15:17 | 48.35509 | -3.44289 | 33150 ft | 416 kts | 210° |
| 2026-04-15 15:18 | 48.30224 | -3.47735 | 33128 ft | 418 kts | 211° |
| 2026-04-15 15:18 | 48.24882 | -3.51212 | 33134 ft | 418 kts | 211° |
| 2026-04-15 15:19 | 48.19541 | -3.54681 | 33134 ft | 418 kts | 211° |
| 2026-04-15 15:19 | 48.14201 | -3.58144 | 33139 ft | 418 kts | 211° |
| 2026-04-15 15:20 | 48.08864 | -3.61601 | 33138 ft | 418 kts | 211° |
| 2026-04-15 15:20 | 48.03525 | -3.65061 | 33146 ft | 418 kts | 211° |
| 2026-04-15 15:21 | 47.98219 | -3.68465 | 33149 ft | 418 kts | 211° |
| 2026-04-15 15:21 | 47.92871 | -3.71896 | 33145 ft | 418 kts | 211° |
| 2026-04-15 15:22 | 47.87523 | -3.75331 | 33153 ft | 417 kts | 211° |
| 2026-04-15 15:22 | 47.82197 | -3.78748 | 33160 ft | 417 kts | 211° |
| 2026-04-15 15:23 | 47.76842 | -3.82175 | 33153 ft | 418 kts | 211° |
| 2026-04-15 15:23 | 47.71518 | -3.85563 | 33161 ft | 419 kts | 211° |
| 2026-04-15 15:24 | 47.66148 | -3.88967 | 33161 ft | 419 kts | 211° |
| 2026-04-15 15:24 | 47.60783 | -3.92366 | 33159 ft | 419 kts | 211° |
| 2026-04-15 15:25 | 47.55418 | -3.95758 | 33162 ft | 419 kts | 211° |
| 2026-04-15 15:25 | 47.50062 | -3.99144 | 33151 ft | 419 kts | 210° |
| 2026-04-15 15:26 | 47.44722 | -4.02510 | 33162 ft | 419 kts | 210° |
| 2026-04-15 15:26 | 47.39352 | -4.05886 | 33167 ft | 419 kts | 210° |
| 2026-04-15 15:27 | 47.33973 | -4.09260 | 33168 ft | 419 kts | 210° |
| 2026-04-15 15:27 | 47.28604 | -4.12617 | 33170 ft | 420 kts | 210° |
| 2026-04-15 15:28 | 47.23248 | -4.15967 | 33173 ft | 421 kts | 210° |
| 2026-04-15 15:28 | 47.17853 | -4.19331 | 33170 ft | 421 kts | 210° |
| 2026-04-15 15:29 | 47.12459 | -4.22670 | 33181 ft | 421 kts | 210° |
| 2026-04-15 15:29 | 47.07063 | -4.26016 | 33181 ft | 422 kts | 210° |
| 2026-04-15 15:30 | 47.01584 | -4.29233 | 33186 ft | 425 kts | 208° |
| 2026-04-15 15:30 | 46.96062 | -4.32196 | 33185 ft | 425 kts | 207° |
| 2026-04-15 15:31 | 46.90498 | -4.35168 | 33188 ft | 425 kts | 207° |
| 2026-04-15 15:31 | 46.84944 | -4.38189 | 33199 ft | 426 kts | 207° |
| 2026-04-15 15:32 | 46.80318 | -4.40723 | 33181 ft | 427 kts | 207° |
| 2026-04-15 15:32 | 46.74743 | -4.43764 | 33180 ft | 427 kts | 207° |
| 2026-04-15 15:33 | 46.69172 | -4.46790 | 33196 ft | 427 kts | 207° |
| 2026-04-15 15:33 | 46.63629 | -4.49794 | 33200 ft | 427 kts | 207° |
| 2026-04-15 15:34 | 46.58052 | -4.52806 | 33189 ft | 427 kts | 207° |
| 2026-04-15 15:34 | 46.52463 | -4.55812 | 33190 ft | 427 kts | 207° |
| 2026-04-15 15:35 | 46.46877 | -4.58815 | 33169 ft | 428 kts | 207° |
| 2026-04-15 15:35 | 46.41285 | -4.61825 | 33197 ft | 429 kts | 207° |
| 2026-04-15 15:36 | 46.35683 | -4.64833 | 33198 ft | 429 kts | 207° |
| 2026-04-15 15:36 | 46.30074 | -4.67832 | 33204 ft | 429 kts | 207° |
| 2026-04-15 15:37 | 46.24502 | -4.70802 | 33202 ft | 430 kts | 206° |
| 2026-04-15 15:37 | 46.18879 | -4.73796 | 33208 ft | 431 kts | 206° |
| 2026-04-15 15:38 | 46.13250 | -4.76794 | 33208 ft | 431 kts | 206° |
| 2026-04-15 15:38 | 46.07612 | -4.79776 | 33206 ft | 431 kts | 207° |
| 2026-04-15 15:39 | 46.01963 | -4.82757 | 33211 ft | 432 kts | 206° |
| 2026-04-15 15:39 | 45.96313 | -4.85746 | 33213 ft | 432 kts | 206° |
| 2026-04-15 15:40 | 45.90665 | -4.88732 | 33217 ft | 432 kts | 206° |
| 2026-04-15 15:40 | 45.85046 | -4.91678 | 33194 ft | 433 kts | 206° |
| 2026-04-15 15:41 | 45.79376 | -4.94641 | 33214 ft | 433 kts | 206° |
| 2026-04-15 15:41 | 45.73709 | -4.97602 | 33220 ft | 433 kts | 206° |
| 2026-04-15 15:42 | 45.68048 | -5.00569 | 33217 ft | 433 kts | 206° |
| 2026-04-15 15:42 | 45.62410 | -5.03519 | 33220 ft | 434 kts | 206° |
| 2026-04-15 15:43 | 45.56722 | -5.06467 | 33227 ft | 434 kts | 206° |
| 2026-04-15 15:43 | 45.51036 | -5.09402 | 33221 ft | 434 kts | 206° |
| 2026-04-15 15:44 | 45.45345 | -5.12356 | 33207 ft | 435 kts | 206° |
| 2026-04-15 15:44 | 45.39681 | -5.15289 | 33227 ft | 436 kts | 206° |
| 2026-04-15 15:45 | 45.33969 | -5.18221 | 33226 ft | 436 kts | 206° |
| 2026-04-15 15:45 | 45.28264 | -5.21154 | 33227 ft | 436 kts | 206° |
| 2026-04-15 15:46 | 45.22548 | -5.24084 | 33232 ft | 437 kts | 206° |
| 2026-04-15 15:46 | 45.16823 | -5.27024 | 33231 ft | 437 kts | 206° |
| 2026-04-15 15:47 | 45.11106 | -5.29951 | 33231 ft | 437 kts | 206° |
| 2026-04-15 15:47 | 45.05414 | -5.32856 | 33221 ft | 437 kts | 206° |
| 2026-04-15 15:48 | 44.99677 | -5.35775 | 33249 ft | 438 kts | 206° |
| 2026-04-15 15:48 | 44.93944 | -5.38681 | 33236 ft | 438 kts | 206° |
| 2026-04-15 15:49 | 44.88197 | -5.41592 | 33233 ft | 438 kts | 206° |
| 2026-04-15 15:49 | 44.82491 | -5.44488 | 33244 ft | 439 kts | 206° |
| 2026-04-15 15:50 | 44.76734 | -5.47393 | 33234 ft | 439 kts | 206° |
| 2026-04-15 15:50 | 44.70972 | -5.50289 | 33234 ft | 439 kts | 205° |
| 2026-04-15 15:51 | 44.65214 | -5.53181 | 33235 ft | 439 kts | 206° |
| 2026-04-15 15:51 | 44.59468 | -5.56102 | 33234 ft | 438 kts | 207° |
| 2026-04-15 15:52 | 44.53881 | -5.59451 | 33238 ft | 436 kts | 210° |
| 2026-04-15 15:52 | 44.48422 | -5.63001 | 33238 ft | 435 kts | 210° |
| 2026-04-15 15:53 | 44.42893 | -5.66516 | 33236 ft | 436 kts | 210° |
| 2026-04-15 15:53 | 44.37327 | -5.69930 | 33236 ft | 436 kts | 209° |
| 2026-04-15 15:54 | 44.31763 | -5.73321 | 33235 ft | 437 kts | 209° |
| 2026-04-15 15:54 | 44.26180 | -5.76735 | 33220 ft | 438 kts | 209° |
| 2026-04-15 15:55 | 44.20636 | -5.80126 | 33239 ft | 438 kts | 209° |
| 2026-04-15 15:55 | 44.15044 | -5.83539 | 33240 ft | 438 kts | 209° |
| 2026-04-15 15:56 | 44.09455 | -5.86939 | 33240 ft | 438 kts | 209° |
| 2026-04-15 15:56 | 44.03897 | -5.90319 | 33240 ft | 438 kts | 209° |
| 2026-04-15 15:57 | 43.98311 | -5.93707 | 33241 ft | 439 kts | 209° |
| 2026-04-15 15:57 | 43.92708 | -5.97102 | 33239 ft | 439 kts | 209° |
| 2026-04-15 15:58 | 43.87102 | -6.00488 | 33212 ft | 439 kts | 209° |
| 2026-04-15 15:58 | 43.81501 | -6.03844 | 33225 ft | 438 kts | 209° |
| 2026-04-15 15:59 | 43.75946 | -6.07185 | 33234 ft | 438 kts | 209° |
| 2026-04-15 15:59 | 43.70354 | -6.10546 | 33225 ft | 439 kts | 209° |
| 2026-04-15 16:00 | 43.64743 | -6.13900 | 33228 ft | 439 kts | 209° |
| 2026-04-15 16:00 | 43.59136 | -6.17251 | 33246 ft | 439 kts | 209° |
| 2026-04-15 16:01 | 43.53533 | -6.20592 | 33243 ft | 439 kts | 209° |
| 2026-04-15 16:01 | 43.47964 | -6.23900 | 33240 ft | 439 kts | 209° |
| 2026-04-15 16:02 | 43.42351 | -6.27234 | 33233 ft | 438 kts | 209° |
| 2026-04-15 16:02 | 43.36763 | -6.30555 | 33224 ft | 437 kts | 209° |
| 2026-04-15 16:03 | 43.31167 | -6.33875 | 33214 ft | 437 kts | 209° |
| 2026-04-15 16:03 | 43.25581 | -6.37170 | 33209 ft | 437 kts | 209° |
| 2026-04-15 16:04 | 43.19984 | -6.40459 | 33198 ft | 437 kts | 209° |
| 2026-04-15 16:04 | 43.14421 | -6.43726 | 33203 ft | 437 kts | 209° |
| 2026-04-15 16:05 | 43.08829 | -6.47010 | 33212 ft | 437 kts | 210° |
| 2026-04-15 16:05 | 43.03224 | -6.50298 | 33185 ft | 437 kts | 210° |
| 2026-04-15 16:06 | 42.97667 | -6.53552 | 33195 ft | 437 kts | 209° |
| 2026-04-15 16:06 | 42.92076 | -6.56807 | 33197 ft | 436 kts | 209° |
| 2026-04-15 16:07 | 42.86492 | -6.60049 | 33198 ft | 436 kts | 209° |
| 2026-04-15 16:08 | 42.78099 | -6.64931 | 33198 ft | 437 kts | 209° |
| 2026-04-15 16:08 | 42.72495 | -6.68179 | 33195 ft | 437 kts | 209° |
| 2026-04-15 16:09 | 42.66900 | -6.71416 | 33201 ft | 437 kts | 209° |
| 2026-04-15 16:09 | 42.61298 | -6.74654 | 33203 ft | 437 kts | 209° |
| 2026-04-15 16:10 | 42.55726 | -6.77858 | 33201 ft | 437 kts | 209° |
| 2026-04-15 16:10 | 42.50111 | -6.81080 | 33204 ft | 437 kts | 209° |
| 2026-04-15 16:11 | 42.44500 | -6.84295 | 33216 ft | 437 kts | 209° |
| 2026-04-15 16:11 | 42.38885 | -6.87514 | 33200 ft | 439 kts | 209° |
| 2026-04-15 16:12 | 42.33263 | -6.90737 | 33210 ft | 439 kts | 209° |
| 2026-04-15 16:12 | 42.27660 | -6.93928 | 33209 ft | 440 kts | 209° |
| 2026-04-15 16:13 | 42.22032 | -6.97134 | 33208 ft | 440 kts | 209° |
| 2026-04-15 16:13 | 42.16376 | -7.00344 | 33218 ft | 440 kts | 209° |
| 2026-04-15 16:14 | 42.10731 | -7.03543 | 33212 ft | 440 kts | 209° |
| 2026-04-15 16:14 | 42.05093 | -7.06735 | 33210 ft | 440 kts | 209° |
| 2026-04-15 16:15 | 41.99451 | -7.09919 | 33209 ft | 440 kts | 208° |
| 2026-04-15 16:15 | 41.93806 | -7.13094 | 33210 ft | 439 kts | 208° |
| 2026-04-15 16:16 | 41.88172 | -7.16264 | 33209 ft | 439 kts | 208° |
| 2026-04-15 16:16 | 41.82572 | -7.19419 | 33208 ft | 439 kts | 208° |
| 2026-04-15 16:17 | 41.76934 | -7.22584 | 33205 ft | 439 kts | 208° |
| 2026-04-15 16:17 | 41.71573 | -7.26356 | 33200 ft | 434 kts | 216° |
| 2026-04-15 16:18 | 41.66352 | -7.30426 | 33219 ft | 434 kts | 216° |
| 2026-04-15 16:18 | 41.61116 | -7.34487 | 33221 ft | 435 kts | 215° |
| 2026-04-15 16:19 | 41.55876 | -7.38537 | 33209 ft | 435 kts | 215° |
| 2026-04-15 16:19 | 41.50646 | -7.42575 | 33216 ft | 433 kts | 216° |
| 2026-04-15 16:20 | 41.45449 | -7.46600 | 33231 ft | 432 kts | 216° |
| 2026-04-15 16:20 | 41.40361 | -7.50823 | 33232 ft | 430 kts | 218° |
| 2026-04-15 16:21 | 41.36183 | -7.54437 | 33236 ft | 430 kts | 218° |
| 2026-04-15 16:21 | 41.31137 | -7.58762 | 33213 ft | 431 kts | 218° |
| 2026-04-15 16:22 | 41.26083 | -7.63017 | 33244 ft | 430 kts | 217° |
| 2026-04-15 16:22 | 41.21001 | -7.67254 | 33244 ft | 430 kts | 218° |
| 2026-04-15 16:23 | 41.15942 | -7.71490 | 33237 ft | 430 kts | 218° |
| 2026-04-15 16:23 | 41.10888 | -7.75730 | 33239 ft | 430 kts | 218° |
| 2026-04-15 16:24 | 41.05826 | -7.79971 | 33238 ft | 428 kts | 218° |
| 2026-04-15 16:24 | 41.00821 | -7.84143 | 33240 ft | 427 kts | 218° |
| 2026-04-15 16:25 | 40.95794 | -7.88320 | 33236 ft | 426 kts | 218° |
| 2026-04-15 16:25 | 40.90763 | -7.92492 | 33245 ft | 426 kts | 218° |
| 2026-04-15 16:26 | 40.85731 | -7.96664 | 33245 ft | 427 kts | 218° |
| 2026-04-15 16:26 | 40.80739 | -8.00796 | 33236 ft | 425 kts | 218° |
| 2026-04-15 16:27 | 40.75714 | -8.04943 | 33252 ft | 425 kts | 218° |
| 2026-04-15 16:27 | 40.70702 | -8.09075 | 33250 ft | 425 kts | 218° |
| 2026-04-15 16:28 | 40.65682 | -8.13213 | 33246 ft | 425 kts | 218° |
| 2026-04-15 16:28 | 40.60662 | -8.17338 | 33235 ft | 425 kts | 217° |
| 2026-04-15 16:29 | 40.55624 | -8.21463 | 33257 ft | 426 kts | 217° |
| 2026-04-15 16:29 | 40.50620 | -8.25557 | 33256 ft | 426 kts | 217° |
| 2026-04-15 16:30 | 40.45587 | -8.29683 | 33258 ft | 426 kts | 217° |
| 2026-04-15 16:30 | 40.40541 | -8.33805 | 33258 ft | 426 kts | 217° |
| 2026-04-15 16:31 | 40.35538 | -8.37876 | 33269 ft | 426 kts | 217° |
| 2026-04-15 16:31 | 40.30491 | -8.41968 | 33266 ft | 426 kts | 217° |
| 2026-04-15 16:32 | 40.25452 | -8.46061 | 33264 ft | 426 kts | 217° |
| 2026-04-15 16:32 | 40.20408 | -8.50144 | 33269 ft | 426 kts | 217° |
| 2026-04-15 16:33 | 40.15360 | -8.54220 | 33251 ft | 426 kts | 217° |
| 2026-04-15 16:33 | 40.10334 | -8.58283 | 33266 ft | 428 kts | 217° |
| 2026-04-15 16:34 | 40.05259 | -8.62366 | 33266 ft | 428 kts | 217° |
| 2026-04-15 16:34 | 40.00184 | -8.66444 | 33273 ft | 428 kts | 217° |
| 2026-04-15 16:35 | 39.95106 | -8.70525 | 33274 ft | 428 kts | 217° |
| 2026-04-15 16:35 | 39.90026 | -8.74600 | 33275 ft | 428 kts | 217° |
| 2026-04-15 16:36 | 39.85010 | -8.78614 | 32978 ft | 425 kts | 217° |
| 2026-04-15 16:36 | 39.82488 | -8.80631 | 32724 ft | 425 kts | 216° |
| 2026-04-15 16:36 | 39.79930 | -8.82674 | 32416 ft | 427 kts | 216° |
| 2026-04-15 16:36 | 39.77427 | -8.84672 | 32120 ft | 428 kts | 216° |
| 2026-04-15 16:37 | 39.74883 | -8.86698 | 31872 ft | 429 kts | 216° |
| 2026-04-15 16:37 | 39.72324 | -8.88735 | 31622 ft | 430 kts | 216° |
| 2026-04-15 16:37 | 39.69768 | -8.90769 | 31377 ft | 432 kts | 216° |
| 2026-04-15 16:37 | 39.67200 | -8.92811 | 31108 ft | 434 kts | 216° |
| 2026-04-15 16:38 | 39.64615 | -8.94864 | 30870 ft | 435 kts | 216° |
| 2026-04-15 16:38 | 39.62027 | -8.96920 | 30630 ft | 437 kts | 216° |
| 2026-04-15 16:38 | 39.59432 | -8.98981 | 30394 ft | 438 kts | 216° |
| 2026-04-15 16:38 | 39.56862 | -9.01020 | 30127 ft | 439 kts | 216° |
| 2026-04-15 16:39 | 39.54252 | -9.03085 | 29836 ft | 440 kts | 216° |
| 2026-04-15 16:39 | 39.51636 | -9.05148 | 28777 ft | 442 kts | 215° |
| 2026-04-15 16:39 | 39.48995 | -9.07230 | 27541 ft | 446 kts | 215° |
| 2026-04-15 16:39 | 39.46334 | -9.09328 | 26376 ft | 450 kts | 215° |
| 2026-04-15 16:40 | 39.43646 | -9.11445 | 25204 ft | 453 kts | 214° |
| 2026-04-15 16:40 | 39.40940 | -9.13576 | 24125 ft | 455 kts | 214° |
| 2026-04-15 16:40 | 39.38237 | -9.15700 | 23183 ft | 452 kts | 214° |
| 2026-04-15 16:40 | 39.35558 | -9.17805 | 22367 ft | 446 kts | 214° |
| 2026-04-15 16:41 | 39.32925 | -9.19873 | 21593 ft | 441 kts | 214° |
| 2026-04-15 16:41 | 39.30318 | -9.21919 | 20841 ft | 436 kts | 214° |
| 2026-04-15 16:41 | 39.27774 | -9.23917 | 20110 ft | 432 kts | 214° |
| 2026-04-15 16:41 | 39.25224 | -9.25919 | 19393 ft | 428 kts | 214° |
| 2026-04-15 16:42 | 39.22682 | -9.27916 | 18680 ft | 424 kts | 213° |
| 2026-04-15 16:42 | 39.20168 | -9.29888 | 17927 ft | 420 kts | 213° |
| 2026-04-15 16:42 | 39.17689 | -9.31827 | 17312 ft | 414 kts | 213° |
| 2026-04-15 16:42 | 39.15242 | -9.33735 | 16671 ft | 408 kts | 213° |
| 2026-04-15 16:43 | 39.12826 | -9.35618 | 16089 ft | 403 kts | 213° |
| 2026-04-15 16:43 | 39.10444 | -9.37471 | 15633 ft | 395 kts | 213° |
| 2026-04-15 16:43 | 39.08138 | -9.39264 | 15514 ft | 379 kts | 213° |
| 2026-04-15 16:43 | 39.05927 | -9.40984 | 15390 ft | 364 kts | 213° |
| 2026-04-15 16:44 | 39.03795 | -9.42642 | 15270 ft | 351 kts | 213° |
| 2026-04-15 16:44 | 39.01741 | -9.44238 | 15150 ft | 339 kts | 213° |
| 2026-04-15 16:44 | 38.99755 | -9.45783 | 15024 ft | 327 kts | 213° |
| 2026-04-15 16:44 | 38.97739 | -9.47123 | 14531 ft | 332 kts | 200° |
| 2026-04-15 16:45 | 38.95501 | -9.47683 | 14294 ft | 328 kts | 191° |
| 2026-04-15 16:45 | 38.93280 | -9.48140 | 14175 ft | 318 kts | 191° |
| 2026-04-15 16:45 | 38.91135 | -9.48600 | 13719 ft | 309 kts | 192° |
| 2026-04-15 16:45 | 38.89022 | -9.49061 | 13120 ft | 306 kts | 192° |
| 2026-04-15 16:46 | 38.86933 | -9.49521 | 12524 ft | 302 kts | 192° |
| 2026-04-15 16:46 | 38.84869 | -9.49972 | 11934 ft | 299 kts | 192° |
| 2026-04-15 16:46 | 38.82825 | -9.50414 | 11361 ft | 296 kts | 192° |
| 2026-04-15 16:46 | 38.80795 | -9.50849 | 10869 ft | 295 kts | 191° |
| 2026-04-15 16:47 | 38.78796 | -9.51208 | 10555 ft | 294 kts | 183° |
| 2026-04-15 16:47 | 38.76756 | -9.51004 | 10219 ft | 294 kts | 176° |
| 2026-04-15 16:47 | 38.74730 | -9.50722 | 9848 ft | 292 kts | 176° |
| 2026-04-15 16:47 | 38.72714 | -9.50438 | 9469 ft | 290 kts | 176° |
| 2026-04-15 16:48 | 38.70712 | -9.50154 | 9108 ft | 288 kts | 176° |
| 2026-04-15 16:48 | 38.68728 | -9.49876 | 8746 ft | 286 kts | 175° |
| 2026-04-15 16:48 | 38.66758 | -9.49598 | 8379 ft | 284 kts | 176° |
| 2026-04-15 16:48 | 38.64805 | -9.49297 | 8016 ft | 282 kts | 171° |
| 2026-04-15 16:49 | 38.63020 | -9.48308 | 7651 ft | 282 kts | 145° |
| 2026-04-15 16:49 | 38.61520 | -9.46700 | 7196 ft | 280 kts | 140° |
| 2026-04-15 16:49 | 38.60083 | -9.45035 | 6575 ft | 277 kts | 139° |
| 2026-04-15 16:49 | 38.58672 | -9.43365 | 5973 ft | 273 kts | 139° |
| 2026-04-15 16:50 | 38.57336 | -9.41786 | 5812 ft | 252 kts | 139° |
| 2026-04-15 16:50 | 38.56087 | -9.40313 | 5412 ft | 244 kts | 139° |
| 2026-04-15 16:50 | 38.54841 | -9.38860 | 4923 ft | 241 kts | 137° |
| 2026-04-15 16:50 | 38.53882 | -9.37119 | 4619 ft | 239 kts | 110° |
| 2026-04-15 16:51 | 38.53617 | -9.35030 | 4494 ft | 240 kts | 84° |
| 2026-04-15 16:51 | 38.54107 | -9.33028 | 4364 ft | 236 kts | 57° |
| 2026-04-15 16:51 | 38.55037 | -9.31301 | 4242 ft | 235 kts | 53° |
| 2026-04-15 16:51 | 38.55975 | -9.29606 | 4131 ft | 229 kts | 53° |
| 2026-04-15 16:52 | 38.56880 | -9.27974 | 4022 ft | 220 kts | 53° |
| 2026-04-15 16:52 | 38.57736 | -9.26423 | 4021 ft | 207 kts | 53° |
| 2026-04-15 16:52 | 38.58529 | -9.24977 | 4049 ft | 189 kts | 53° |
| 2026-04-15 16:52 | 38.59371 | -9.23783 | 3940 ft | 176 kts | 36° |
| 2026-04-15 16:53 | 38.60409 | -9.23042 | 3757 ft | 171 kts | 21° |
| 2026-04-15 16:53 | 38.61515 | -9.22455 | 3553 ft | 168 kts | 21° |
| 2026-04-15 16:53 | 38.62574 | -9.21893 | 3336 ft | 166 kts | 20° |
| 2026-04-15 16:53 | 38.63643 | -9.21324 | 3107 ft | 167 kts | 20° |
| 2026-04-15 16:54 | 38.64705 | -9.20759 | 2892 ft | 165 kts | 21° |
| 2026-04-15 16:54 | 38.65765 | -9.20195 | 2676 ft | 165 kts | 21° |
| 2026-04-15 16:54 | 38.66822 | -9.19631 | 2444 ft | 164 kts | 19° |
| 2026-04-15 16:54 | 38.67879 | -9.19068 | 2205 ft | 165 kts | 19° |
| 2026-04-15 16:55 | 38.68921 | -9.18512 | 1990 ft | 159 kts | 19° |
| 2026-04-15 16:55 | 38.69931 | -9.17974 | 1796 ft | 154 kts | 18° |
| 2026-04-15 16:55 | 38.70891 | -9.17461 | 1565 ft | 143 kts | 18° |
| 2026-04-15 16:55 | 38.71776 | -9.16987 | 1378 ft | 135 kts | 19° |
| 2026-04-15 16:56 | 38.72637 | -9.16529 | 1196 ft | 132 kts | 18° |
| 2026-04-15 16:56 | 38.73477 | -9.16080 | 1038 ft | 133 kts | 19° |
| 2026-04-15 16:56 | 38.74338 | -9.15621 | 856 ft | 134 kts | 18° |
| 2026-04-15 16:56 | 38.75205 | -9.15154 | 689 ft | 134 kts | 18° |
| 2026-04-15 16:57 | 38.76061 | -9.14696 | 529 ft | 133 kts | 17° |
| 2026-04-15 16:57 | 38.76906 | -9.14245 | 359 ft | 129 kts | 24° |
| 2026-04-15 16:57 | 38.77610 | -9.13873 | 366 ft | 87 kts | 22° |
| 2026-04-15 16:57 | 38.78023 | -9.13650 | 366 ft | 50 kts | 22° |
| 2026-04-15 16:58 | 38.78293 | -9.13460 | 367 ft | 39 kts | 46° |
| 2026-04-15 16:58 | 38.78373 | -9.13307 | 364 ft | 17 kts | 94° |
| 2026-04-15 16:58 | 38.78282 | -9.13283 | 361 ft | 15 kts | 204° |
| 2026-04-15 16:58 | 38.78215 | -9.13323 | 358 ft | 9 kts | 205° |
| 2026-04-15 16:59 | 38.78158 | -9.13351 | 362 ft | 9 kts | 199° |
| 2026-04-15 16:59 | 38.78104 | -9.13378 | 361 ft | 8 kts | 203° |
| 2026-04-15 16:59 | 38.78054 | -9.13406 | 360 ft | 8 kts | 203° |
| 2026-04-15 16:59 | 38.77999 | -9.13412 | 356 ft | 9 kts | 173° |
| 2026-04-15 17:00 | 38.77925 | -9.13391 | 358 ft | 13 kts | 166° |
| 2026-04-15 17:00 | 38.77829 | -9.13364 | 347 ft | 15 kts | 168° |
| 2026-04-15 17:00 | 38.77746 | -9.13342 | 345 ft | 12 kts | 167° |
| 2026-04-15 17:00 | 38.77650 | -9.13320 | 338 ft | 15 kts | 174° |
| 2026-04-15 17:01 | 38.77554 | -9.13313 | 337 ft | 12 kts | 169° |
| 2026-04-15 17:01 | 38.77494 | -9.13298 | 334 ft | 7 kts | 168° |
| 2026-04-15 17:01 | 38.77471 | -9.13265 | 334 ft | 6 kts | 84° |
| 2026-04-15 17:01 | 38.77480 | -9.13213 | 334 ft | 6 kts | 77° |
| 2026-04-15 17:02 | 38.77486 | -9.13177 | 335 ft | 2 kts | 78° |
| 2026-04-15 17:02 | 38.77489 | -9.13159 | 337 ft | 2 kts | 78° |
| 2026-04-15 17:02 | 38.77490 | -9.13155 | 337 ft | 0 kts | 78° |